sensor_id;sensor_type;location;lat;lon;timestamp;P1;P2;P0
77878;PMS7003;67071;51.144;17.050;2023-03-23T00:02:37;21;18;13
77878;PMS7003;67071;51.144;17.050;2023-03-23T00:05:52;15;15;11
77878;PMS7003;67071;51.144;17.050;2023-03-23T00:09:09;17;16;12
77878;PMS7003;67071;51.144;17.050;2023-03-23T00:12:25;18;18;14
77878;PMS7003;67071;51.144;17.050;2023-03-23T00:15:51;16;13;10
77878;PMS7003;67071;51.144;17.050;2023-03-23T00:19:08;17;12;9
77878;PMS7003;67071;51.144;17.050;2023-03-23T00:22:29;16;15;11
77878;PMS7003;67071;51.144;17.050;2023-03-23T00:25:45;14;13;11
77878;PMS7003;67071;51.144;17.050;2023-03-23T00:29:02;17;17;11
77878;PMS7003;67071;51.144;17.050;2023-03-23T00:32:21;20;19;12
77878;PMS7003;67071;51.144;17.050;2023-03-23T00:35:47;23;23;17
77878;PMS7003;67071;51.144;17.050;2023-03-23T00:39:06;22;20;14
77878;PMS7003;67071;51.144;17.050;2023-03-23T00:42:21;19;17;14
77878;PMS7003;67071;51.144;17.050;2023-03-23T00:45:38;19;17;13
77878;PMS7003;67071;51.144;17.050;2023-03-23T00:48:52;25;24;16
77878;PMS7003;67071;51.144;17.050;2023-03-23T00:52:07;17;14;10
77878;PMS7003;67071;51.144;17.050;2023-03-23T00:55:25;17;16;11
77878;PMS7003;67071;51.144;17.050;2023-03-23T00:58:43;18;16;11
77878;PMS7003;67071;51.144;17.050;2023-03-23T01:01:58;23;21;13
77878;PMS7003;67071;51.144;17.050;2023-03-23T01:05:12;14;12;10
77878;PMS7003;67071;51.144;17.050;2023-03-23T01:08:29;23;15;11
77878;PMS7003;67071;51.144;17.050;2023-03-23T01:11:46;20;17;12
77878;PMS7003;67071;51.144;17.050;2023-03-23T01:15:03;20;19;12
77878;PMS7003;67071;51.144;17.050;2023-03-23T01:18:24;26;24;15
77878;PMS7003;67071;51.144;17.050;2023-03-23T01:21:39;30;26;17
77878;PMS7003;67071;51.144;17.050;2023-03-23T01:24:54;17;16;12
77878;PMS7003;67071;51.144;17.050;2023-03-23T01:28:09;15;15;12
77878;PMS7003;67071;51.144;17.050;2023-03-23T01:31:28;22;22;15
77878;PMS7003;67071;51.144;17.050;2023-03-23T01:34:42;27;23;15
77878;PMS7003;67071;51.144;17.050;2023-03-23T01:37:57;17;17;12
77878;PMS7003;67071;51.144;17.050;2023-03-23T01:41:12;23;18;15
77878;PMS7003;67071;51.144;17.050;2023-03-23T01:51:38;20;17;13
77878;PMS7003;67071;51.144;17.050;2023-03-23T01:55:00;22;19;13
77878;PMS7003;67071;51.144;17.050;2023-03-23T01:58:19;19;16;9
77878;PMS7003;67071;51.144;17.050;2023-03-23T02:01:43;30;26;15
77878;PMS7003;67071;51.144;17.050;2023-03-23T02:05:01;24;20;14
77878;PMS7003;67071;51.144;17.050;2023-03-23T02:08:22;17;16;11
77878;PMS7003;67071;51.144;17.050;2023-03-23T02:11:38;17;15;11
77878;PMS7003;67071;51.144;17.050;2023-03-23T02:14:56;19;15;12
77878;PMS7003;67071;51.144;17.050;2023-03-23T02:28:49;21;17;12
77878;PMS7003;67071;51.144;17.050;2023-03-23T02:36:05;17;17;11
77878;PMS7003;67071;51.144;17.050;2023-03-23T02:39:33;18;18;11
77878;PMS7003;67071;51.144;17.050;2023-03-23T02:43:06;17;17;11
77878;PMS7003;67071;51.144;17.050;2023-03-23T02:46:24;16;12;8
77878;PMS7003;67071;51.144;17.050;2023-03-23T02:49:50;15;15;12
77878;PMS7003;67071;51.144;17.050;2023-03-23T02:53:09;17;16;11
77878;PMS7003;67071;51.144;17.050;2023-03-23T02:56:30;17;15;11
77878;PMS7003;67071;51.144;17.050;2023-03-23T02:59:48;22;18;12
77878;PMS7003;67071;51.144;17.050;2023-03-23T03:03:06;18;17;13
77878;PMS7003;67071;51.144;17.050;2023-03-23T03:09:50;14;12;9
77878;PMS7003;67071;51.144;17.050;2023-03-23T03:20:47;13;12;8
77878;PMS7003;67071;51.144;17.050;2023-03-23T03:24:08;13;12;9
77878;PMS7003;67071;51.144;17.050;2023-03-23T03:27:31;15;11;7
77878;PMS7003;67071;51.144;17.050;2023-03-23T03:30:53;14;12;8
77878;PMS7003;67071;51.144;17.050;2023-03-23T03:34:11;8;8;7
77878;PMS7003;67071;51.144;17.050;2023-03-23T03:37:41;15;10;7
77878;PMS7003;67071;51.144;17.050;2023-03-23T03:40:56;16;11;7
77878;PMS7003;67071;51.144;17.050;2023-03-23T03:44:11;14;11;9
77878;PMS7003;67071;51.144;17.050;2023-03-23T03:47:27;12;8;6
77878;PMS7003;67071;51.144;17.050;2023-03-23T03:50:42;8;7;5
77878;PMS7003;67071;51.144;17.050;2023-03-23T03:53:57;9;7;5
77878;PMS7003;67071;51.144;17.050;2023-03-23T03:57:15;9;9;7
77878;PMS7003;67071;51.144;17.050;2023-03-23T04:00:31;10;10;6
77878;PMS7003;67071;51.144;17.050;2023-03-23T04:03:46;15;11;7
77878;PMS7003;67071;51.144;17.050;2023-03-23T04:07:03;8;8;7
77878;PMS7003;67071;51.144;17.050;2023-03-23T04:10:20;9;9;7
77878;PMS7003;67071;51.144;17.050;2023-03-23T04:13:38;7;6;5
77878;PMS7003;67071;51.144;17.050;2023-03-23T04:16:53;7;7;5
77878;PMS7003;67071;51.144;17.050;2023-03-23T04:20:11;6;6;5
77878;PMS7003;67071;51.144;17.050;2023-03-23T04:24:05;9;9;7
77878;PMS7003;67071;51.144;17.050;2023-03-23T04:27:21;11;11;7
77878;PMS7003;67071;51.144;17.050;2023-03-23T04:30:38;8;7;5
77878;PMS7003;67071;51.144;17.050;2023-03-23T04:33:57;9;9;7
77878;PMS7003;67071;51.144;17.050;2023-03-23T04:37:15;6;6;5
77878;PMS7003;67071;51.144;17.050;2023-03-23T04:40:35;7;7;5
77878;PMS7003;67071;51.144;17.050;2023-03-23T04:43:51;11;7;5
77878;PMS7003;67071;51.144;17.050;2023-03-23T04:47:14;8;8;6
77878;PMS7003;67071;51.144;17.050;2023-03-23T04:50:32;9;9;6
77878;PMS7003;67071;51.144;17.050;2023-03-23T04:53:48;7;6;5
77878;PMS7003;67071;51.144;17.050;2023-03-23T04:57:03;5;5;2
77878;PMS7003;67071;51.144;17.050;2023-03-23T05:00:18;6;4;1
77878;PMS7003;67071;51.144;17.050;2023-03-23T05:03:52;11;10;5
77878;PMS7003;67071;51.144;17.050;2023-03-23T05:07:08;6;6;4
77878;PMS7003;67071;51.144;17.050;2023-03-23T05:10:24;12;7;6
77878;PMS7003;67071;51.144;17.050;2023-03-23T05:13:40;8;7;6
77878;PMS7003;67071;51.144;17.050;2023-03-23T05:16:54;9;9;7
77878;PMS7003;67071;51.144;17.050;2023-03-23T05:20:10;9;8;6
77878;PMS7003;67071;51.144;17.050;2023-03-23T05:23:33;7;7;6
77878;PMS7003;67071;51.144;17.050;2023-03-23T05:26:49;5;5;4
77878;PMS7003;67071;51.144;17.050;2023-03-23T05:30:07;7;7;5
77878;PMS7003;67071;51.144;17.050;2023-03-23T05:33:22;7;7;5
77878;PMS7003;67071;51.144;17.050;2023-03-23T05:36:45;10;9;6
77878;PMS7003;67071;51.144;17.050;2023-03-23T05:40:01;9;6;5
77878;PMS7003;67071;51.144;17.050;2023-03-23T05:43:21;16;11;8
77878;PMS7003;67071;51.144;17.050;2023-03-23T05:46:39;6;6;5
77878;PMS7003;67071;51.144;17.050;2023-03-23T05:49:54;14;10;7
77878;PMS7003;67071;51.144;17.050;2023-03-23T05:53:13;10;10;7
77878;PMS7003;67071;51.144;17.050;2023-03-23T05:56:33;8;6;5
77878;PMS7003;67071;51.144;17.050;2023-03-23T05:59:48;7;7;5
77878;PMS7003;67071;51.144;17.050;2023-03-23T06:03:03;9;8;6
77878;PMS7003;67071;51.144;17.050;2023-03-23T06:06:17;7;7;5
77878;PMS7003;67071;51.144;17.050;2023-03-23T06:09:33;6;5;5
77878;PMS7003;67071;51.144;17.050;2023-03-23T06:12:51;7;7;6
77878;PMS7003;67071;51.144;17.050;2023-03-23T06:16:06;7;7;6
77878;PMS7003;67071;51.144;17.050;2023-03-23T06:19:33;6;6;5
77878;PMS7003;67071;51.144;17.050;2023-03-23T06:22:48;5;5;5
77878;PMS7003;67071;51.144;17.050;2023-03-23T06:26:04;6;6;4
77878;PMS7003;67071;51.144;17.050;2023-03-23T06:29:21;7;7;5
77878;PMS7003;67071;51.144;17.050;2023-03-23T06:32:39;12;9;6
77878;PMS7003;67071;51.144;17.050;2023-03-23T06:35:56;7;7;6
77878;PMS7003;67071;51.144;17.050;2023-03-23T06:39:32;8;7;5
77878;PMS7003;67071;51.144;17.050;2023-03-23T06:42:47;12;9;6
77878;PMS7003;67071;51.144;17.050;2023-03-23T06:46:02;9;9;7
77878;PMS7003;67071;51.144;17.050;2023-03-23T06:49:17;7;6;5
77878;PMS7003;67071;51.144;17.050;2023-03-23T06:52:33;5;5;4
77878;PMS7003;67071;51.144;17.050;2023-03-23T06:55:48;8;5;4
77878;PMS7003;67071;51.144;17.050;2023-03-23T06:59:03;9;5;4
77878;PMS7003;67071;51.144;17.050;2023-03-23T07:02:18;5;4;3
77878;PMS7003;67071;51.144;17.050;2023-03-23T07:05:33;13;11;7
77878;PMS7003;67071;51.144;17.050;2023-03-23T07:08:49;9;5;3
77878;PMS7003;67071;51.144;17.050;2023-03-23T07:12:06;11;9;6
77878;PMS7003;67071;51.144;17.050;2023-03-23T07:15:21;9;9;6
77878;PMS7003;67071;51.144;17.050;2023-03-23T07:18:41;13;7;5
77878;PMS7003;67071;51.144;17.050;2023-03-23T07:21:56;7;7;4
77878;PMS7003;67071;51.144;17.050;2023-03-23T07:25:11;10;9;7
77878;PMS7003;67071;51.144;17.050;2023-03-23T07:28:39;6;6;4
77878;PMS7003;67071;51.144;17.050;2023-03-23T07:31:54;13;10;8
77878;PMS7003;67071;51.144;17.050;2023-03-23T07:35:12;9;9;4
77878;PMS7003;67071;51.144;17.050;2023-03-23T07:38:26;8;7;5
77878;PMS7003;67071;51.144;17.050;2023-03-23T07:41:45;12;9;6
77878;PMS7003;67071;51.144;17.050;2023-03-23T07:45:03;7;7;3
77878;PMS7003;67071;51.144;17.050;2023-03-23T07:48:18;4;4;4
77878;PMS7003;67071;51.144;17.050;2023-03-23T07:51:33;6;6;4
77878;PMS7003;67071;51.144;17.050;2023-03-23T07:54:48;7;7;4
77878;PMS7003;67071;51.144;17.050;2023-03-23T07:58:12;10;10;6
77878;PMS7003;67071;51.144;17.050;2023-03-23T08:01:33;6;6;5
77878;PMS7003;67071;51.144;17.050;2023-03-23T08:04:48;10;9;6
77878;PMS7003;67071;51.144;17.050;2023-03-23T08:08:03;9;8;6
77878;PMS7003;67071;51.144;17.050;2023-03-23T08:11:20;5;5;2
77878;PMS7003;67071;51.144;17.050;2023-03-23T08:14:35;10;9;5
77878;PMS7003;67071;51.144;17.050;2023-03-23T08:17:50;14;10;6
77878;PMS7003;67071;51.144;17.050;2023-03-23T08:21:11;6;6;5
77878;PMS7003;67071;51.144;17.050;2023-03-23T08:24:27;10;10;6
77878;PMS7003;67071;51.144;17.050;2023-03-23T08:27:41;10;10;5
77878;PMS7003;67071;51.144;17.050;2023-03-23T08:30:57;12;11;7
77878;PMS7003;67071;51.144;17.050;2023-03-23T08:34:12;14;8;7
77878;PMS7003;67071;51.144;17.050;2023-03-23T08:37:30;6;6;4
77878;PMS7003;67071;51.144;17.050;2023-03-23T08:40:45;11;10;7
77878;PMS7003;67071;51.144;17.050;2023-03-23T08:44:01;7;7;4
77878;PMS7003;67071;51.144;17.050;2023-03-23T08:47:19;14;9;5
77878;PMS7003;67071;51.144;17.050;2023-03-23T08:50:34;7;7;4
77878;PMS7003;67071;51.144;17.050;2023-03-23T08:53:54;7;7;5
77878;PMS7003;67071;51.144;17.050;2023-03-23T08:57:11;4;4;3
77878;PMS7003;67071;51.144;17.050;2023-03-23T09:00:28;7;4;2
77878;PMS7003;67071;51.144;17.050;2023-03-23T09:03:43;8;7;5
77878;PMS7003;67071;51.144;17.050;2023-03-23T09:06:58;5;5;1
77878;PMS7003;67071;51.144;17.050;2023-03-23T09:10:13;4;4;2
77878;PMS7003;67071;51.144;17.050;2023-03-23T09:13:29;11;4;2
77878;PMS7003;67071;51.144;17.050;2023-03-23T09:17:00;7;5;4
77878;PMS7003;67071;51.144;17.050;2023-03-23T09:20:18;6;6;4
77878;PMS7003;67071;51.144;17.050;2023-03-23T09:23:36;6;6;4
77878;PMS7003;67071;51.144;17.050;2023-03-23T09:26:50;10;6;5
77878;PMS7003;67071;51.144;17.050;2023-03-23T09:30:05;7;7;4
77878;PMS7003;67071;51.144;17.050;2023-03-23T09:33:21;6;5;4
77878;PMS7003;67071;51.144;17.050;2023-03-23T09:36:36;4;4;3
77878;PMS7003;67071;51.144;17.050;2023-03-23T09:39:53;10;5;3
77878;PMS7003;67071;51.144;17.050;2023-03-23T09:50:12;5;5;3
77878;PMS7003;67071;51.144;17.050;2023-03-23T09:56:53;3;3;2
77878;PMS7003;67071;51.144;17.050;2023-03-23T10:04:14;0;0;0
77878;PMS7003;67071;51.144;17.050;2023-03-23T10:07:37;3;2;2
77878;PMS7003;67071;51.144;17.050;2023-03-23T10:18:17;3;3;1
77878;PMS7003;67071;51.144;17.050;2023-03-23T10:21:51;1;1;1
77878;PMS7003;67071;51.144;17.050;2023-03-23T10:25:15;2;2;1
77878;PMS7003;67071;51.144;17.050;2023-03-23T10:28:37;1;1;1
77878;PMS7003;67071;51.144;17.050;2023-03-23T10:31:58;2;2;2
77878;PMS7003;67071;51.144;17.050;2023-03-23T10:35:19;1;1;0
77878;PMS7003;67071;51.144;17.050;2023-03-23T10:38:43;2;2;1
77878;PMS7003;67071;51.144;17.050;2023-03-23T10:42:02;1;1;1
77878;PMS7003;67071;51.144;17.050;2023-03-23T10:45:26;2;1;0
77878;PMS7003;67071;51.144;17.050;2023-03-23T10:48:46;1;1;1
77878;PMS7003;67071;51.144;17.050;2023-03-23T10:55:45;7;2;1
77878;PMS7003;67071;51.144;17.050;2023-03-23T11:02:29;2;2;1
77878;PMS7003;67071;51.144;17.050;2023-03-23T11:05:45;2;2;0
77878;PMS7003;67071;51.144;17.050;2023-03-23T11:12:46;1;1;0
77878;PMS7003;67071;51.144;17.050;2023-03-23T11:16:01;1;1;1
77878;PMS7003;67071;51.144;17.050;2023-03-23T11:19:21;1;1;1
77878;PMS7003;67071;51.144;17.050;2023-03-23T11:22:42;1;1;0
77878;PMS7003;67071;51.144;17.050;2023-03-23T11:29:27;0;0;0
77878;PMS7003;67071;51.144;17.050;2023-03-23T11:32:50;0;0;0
77878;PMS7003;67071;51.144;17.050;2023-03-23T11:36:08;3;1;1
77878;PMS7003;67071;51.144;17.050;2023-03-23T11:39:30;1;1;0
77878;PMS7003;67071;51.144;17.050;2023-03-23T11:42:58;0;0;0
77878;PMS7003;67071;51.144;17.050;2023-03-23T11:53:10;4;4;2
77878;PMS7003;67071;51.144;17.050;2023-03-23T11:56:47;1;1;0
77878;PMS7003;67071;51.144;17.050;2023-03-23T12:00:10;6;3;2
77878;PMS7003;67071;51.144;17.050;2023-03-23T12:10:49;1;1;0
77878;PMS7003;67071;51.144;17.050;2023-03-23T12:14:16;3;3;0
77878;PMS7003;67071;51.144;17.050;2023-03-23T12:25:01;2;2;1
77878;PMS7003;67071;51.144;17.050;2023-03-23T12:35:40;1;1;1
77878;PMS7003;67071;51.144;17.050;2023-03-23T12:42:35;3;2;1
77878;PMS7003;67071;51.144;17.050;2023-03-23T12:53:51;5;3;2
77878;PMS7003;67071;51.144;17.050;2023-03-23T13:04:25;4;4;2
77878;PMS7003;67071;51.144;17.050;2023-03-23T13:11:19;1;1;1
77878;PMS7003;67071;51.144;17.050;2023-03-23T13:25:17;3;2;2
77878;PMS7003;67071;51.144;17.050;2023-03-23T13:32:12;4;4;2
77878;PMS7003;67071;51.144;17.050;2023-03-23T13:38:52;3;3;2
77878;PMS7003;67071;51.144;17.050;2023-03-23T13:45:51;2;2;1
77878;PMS7003;67071;51.144;17.050;2023-03-23T13:49:18;2;2;1
77878;PMS7003;67071;51.144;17.050;2023-03-23T13:56:21;4;4;2
77878;PMS7003;67071;51.144;17.050;2023-03-23T13:59:48;2;2;2
77878;PMS7003;67071;51.144;17.050;2023-03-23T14:06:36;5;5;4
77878;PMS7003;67071;51.144;17.050;2023-03-23T14:09:52;2;2;2
77878;PMS7003;67071;51.144;17.050;2023-03-23T14:16:49;3;3;3
77878;PMS7003;67071;51.144;17.050;2023-03-23T14:20:26;4;4;3
77878;PMS7003;67071;51.144;17.050;2023-03-23T14:23:49;3;2;2
77878;PMS7003;67071;51.144;17.050;2023-03-23T14:27:09;5;4;2
77878;PMS7003;67071;51.144;17.050;2023-03-23T14:30:27;3;3;3
77878;PMS7003;67071;51.144;17.050;2023-03-23T14:33:56;2;2;2
77878;PMS7003;67071;51.144;17.050;2023-03-23T14:37:15;5;3;2
77878;PMS7003;67071;51.144;17.050;2023-03-23T14:40:33;9;8;4
77878;PMS7003;67071;51.144;17.050;2023-03-23T14:43:48;5;5;3
77878;PMS7003;67071;51.144;17.050;2023-03-23T14:47:13;6;6;4
77878;PMS7003;67071;51.144;17.050;2023-03-23T14:50:38;6;6;3
77878;PMS7003;67071;51.144;17.050;2023-03-23T14:54:00;7;7;4
77878;PMS7003;67071;51.144;17.050;2023-03-23T14:57:28;5;5;3
77878;PMS7003;67071;51.144;17.050;2023-03-23T15:00:49;12;5;4
77878;PMS7003;67071;51.144;17.050;2023-03-23T15:04:35;4;4;3
77878;PMS7003;67071;51.144;17.050;2023-03-23T15:07:52;3;3;2
77878;PMS7003;67071;51.144;17.050;2023-03-23T15:11:29;33;30;20
77878;PMS7003;67071;51.144;17.050;2023-03-23T15:14:47;7;5;4
77878;PMS7003;67071;51.144;17.050;2023-03-23T15:18:05;5;5;3
77878;PMS7003;67071;51.144;17.050;2023-03-23T15:21:57;6;5;4
77878;PMS7003;67071;51.144;17.050;2023-03-23T15:25:22;5;5;4
77878;PMS7003;67071;51.144;17.050;2023-03-23T15:28:46;5;5;4
77878;PMS7003;67071;51.144;17.050;2023-03-23T15:32:09;2;2;2
77878;PMS7003;67071;51.144;17.050;2023-03-23T15:35:27;5;5;5
77878;PMS7003;67071;51.144;17.050;2023-03-23T15:38:48;4;3;2
77878;PMS7003;67071;51.144;17.050;2023-03-23T15:42:18;4;4;2
77878;PMS7003;67071;51.144;17.050;2023-03-23T15:49:37;5;5;3
77878;PMS7003;67071;51.144;17.050;2023-03-23T15:52:52;2;2;1
77878;PMS7003;67071;51.144;17.050;2023-03-23T15:56:23;4;4;2
77878;PMS7003;67071;51.144;17.050;2023-03-23T15:59:39;5;5;3
77878;PMS7003;67071;51.144;17.050;2023-03-23T16:03:17;7;4;2
77878;PMS7003;67071;51.144;17.050;2023-03-23T16:06:44;8;8;4
77878;PMS7003;67071;51.144;17.050;2023-03-23T16:09:59;6;6;3
77878;PMS7003;67071;51.144;17.050;2023-03-23T16:13:21;5;5;3
77878;PMS7003;67071;51.144;17.050;2023-03-23T16:16:38;11;10;6
77878;PMS7003;67071;51.144;17.050;2023-03-23T16:20:04;8;7;5
77878;PMS7003;67071;51.144;17.050;2023-03-23T16:23:28;15;15;8
77878;PMS7003;67071;51.144;17.050;2023-03-23T16:26:42;17;17;13
77878;PMS7003;67071;51.144;17.050;2023-03-23T16:29:59;7;7;4
77878;PMS7003;67071;51.144;17.050;2023-03-23T16:33:29;6;6;4
77878;PMS7003;67071;51.144;17.050;2023-03-23T16:36:44;16;10;7
77878;PMS7003;67071;51.144;17.050;2023-03-23T16:39:59;10;8;5
77878;PMS7003;67071;51.144;17.050;2023-03-23T16:43:17;8;8;5
77878;PMS7003;67071;51.144;17.050;2023-03-23T16:46:32;7;7;4
77878;PMS7003;67071;51.144;17.050;2023-03-23T16:49:47;10;8;5
77878;PMS7003;67071;51.144;17.050;2023-03-23T16:53:02;13;9;6
77878;PMS7003;67071;51.144;17.050;2023-03-23T16:56:17;9;9;5
77878;PMS7003;67071;51.144;17.050;2023-03-23T16:59:32;9;4;3
77878;PMS7003;67071;51.144;17.050;2023-03-23T17:02:47;12;12;8
77878;PMS7003;67071;51.144;17.050;2023-03-23T17:06:07;10;10;7
77878;PMS7003;67071;51.144;17.050;2023-03-23T17:09:22;0;0;0
77878;PMS7003;67071;51.144;17.050;2023-03-23T17:12:38;6;6;5
77878;PMS7003;67071;51.144;17.050;2023-03-23T17:15:54;9;9;5
77878;PMS7003;67071;51.144;17.050;2023-03-23T17:19:10;10;10;6
77878;PMS7003;67071;51.144;17.050;2023-03-23T17:22:27;11;11;7
77878;PMS7003;67071;51.144;17.050;2023-03-23T17:26:02;6;6;5
77878;PMS7003;67071;51.144;17.050;2023-03-23T17:29:17;9;8;5
77878;PMS7003;67071;51.144;17.050;2023-03-23T17:32:32;9;9;7
77878;PMS7003;67071;51.144;17.050;2023-03-23T17:35:50;5;5;4
77878;PMS7003;67071;51.144;17.050;2023-03-23T17:39:05;9;9;6
77878;PMS7003;67071;51.144;17.050;2023-03-23T17:42:22;10;8;5
77878;PMS7003;67071;51.144;17.050;2023-03-23T17:45:40;10;8;5
77878;PMS7003;67071;51.144;17.050;2023-03-23T17:48:55;7;7;6
77878;PMS7003;67071;51.144;17.050;2023-03-23T17:52:09;10;8;4
77878;PMS7003;67071;51.144;17.050;2023-03-23T17:55:24;8;6;4
77878;PMS7003;67071;51.144;17.050;2023-03-23T17:58:39;8;7;6
77878;PMS7003;67071;51.144;17.050;2023-03-23T18:01:54;8;8;5
77878;PMS7003;67071;51.144;17.050;2023-03-23T18:05:29;6;6;4
77878;PMS7003;67071;51.144;17.050;2023-03-23T18:08:45;2;2;2
77878;PMS7003;67071;51.144;17.050;2023-03-23T18:12:04;5;5;1
77878;PMS7003;67071;51.144;17.050;2023-03-23T18:15:19;10;10;4
77878;PMS7003;67071;51.144;17.050;2023-03-23T18:18:34;5;5;3
77878;PMS7003;67071;51.144;17.050;2023-03-23T18:21:56;7;7;5
77878;PMS7003;67071;51.144;17.050;2023-03-23T18:25:14;5;5;4
77878;PMS7003;67071;51.144;17.050;2023-03-23T18:28:29;8;7;6
77878;PMS7003;67071;51.144;17.050;2023-03-23T18:31:45;6;6;4
77878;PMS7003;67071;51.144;17.050;2023-03-23T18:35:00;7;5;4
77878;PMS7003;67071;51.144;17.050;2023-03-23T18:38:15;5;5;2
77878;PMS7003;67071;51.144;17.050;2023-03-23T18:41:30;6;6;4
77878;PMS7003;67071;51.144;17.050;2023-03-23T18:44:45;7;7;5
77878;PMS7003;67071;51.144;17.050;2023-03-23T18:48:00;8;8;6
77878;PMS7003;67071;51.144;17.050;2023-03-23T18:51:15;7;6;5
77878;PMS7003;67071;51.144;17.050;2023-03-23T18:54:32;9;9;6
77878;PMS7003;67071;51.144;17.050;2023-03-23T18:57:48;11;11;6
77878;PMS7003;67071;51.144;17.050;2023-03-23T19:01:21;9;9;8
77878;PMS7003;67071;51.144;17.050;2023-03-23T19:04:36;12;10;6
77878;PMS7003;67071;51.144;17.050;2023-03-23T19:07:53;7;7;5
77878;PMS7003;67071;51.144;17.050;2023-03-23T19:11:21;2;2;0
77878;PMS7003;67071;51.144;17.050;2023-03-23T19:14:40;8;8;6
77878;PMS7003;67071;51.144;17.050;2023-03-23T19:17:55;9;9;7
77878;PMS7003;67071;51.144;17.050;2023-03-23T19:21:10;11;11;7
77878;PMS7003;67071;51.144;17.050;2023-03-23T19:24:34;8;8;5
77878;PMS7003;67071;51.144;17.050;2023-03-23T19:27:50;9;9;6
77878;PMS7003;67071;51.144;17.050;2023-03-23T19:31:05;11;9;7
77878;PMS7003;67071;51.144;17.050;2023-03-23T19:34:20;12;12;7
77878;PMS7003;67071;51.144;17.050;2023-03-23T19:37:35;10;9;6
77878;PMS7003;67071;51.144;17.050;2023-03-23T19:40:53;32;28;18
77878;PMS7003;67071;51.144;17.050;2023-03-23T19:44:10;11;11;6
77878;PMS7003;67071;51.144;17.050;2023-03-23T19:47:27;8;7;6
77878;PMS7003;67071;51.144;17.050;2023-03-23T19:50:42;11;11;7
77878;PMS7003;67071;51.144;17.050;2023-03-23T19:54:05;8;8;5
77878;PMS7003;67071;51.144;17.050;2023-03-23T19:57:21;5;5;5
77878;PMS7003;67071;51.144;17.050;2023-03-23T20:00:36;14;9;7
77878;PMS7003;67071;51.144;17.050;2023-03-23T20:03:58;10;10;7
77878;PMS7003;67071;51.144;17.050;2023-03-23T20:07:18;12;11;7
77878;PMS7003;67071;51.144;17.050;2023-03-23T20:10:32;8;4;2
77878;PMS7003;67071;51.144;17.050;2023-03-23T20:13:50;12;12;9
77878;PMS7003;67071;51.144;17.050;2023-03-23T20:17:04;17;13;9
77878;PMS7003;67071;51.144;17.050;2023-03-23T20:20:23;17;11;9
77878;PMS7003;67071;51.144;17.050;2023-03-23T20:23:59;10;10;9
77878;PMS7003;67071;51.144;17.050;2023-03-23T20:27:15;10;10;7
77878;PMS7003;67071;51.144;17.050;2023-03-23T20:30:30;10;10;5
77878;PMS7003;67071;51.144;17.050;2023-03-23T20:33:45;10;9;6
77878;PMS7003;67071;51.144;17.050;2023-03-23T20:37:04;14;11;8
77878;PMS7003;67071;51.144;17.050;2023-03-23T20:40:20;6;5;3
77878;PMS7003;67071;51.144;17.050;2023-03-23T20:43:42;11;9;6
77878;PMS7003;67071;51.144;17.050;2023-03-23T20:46:57;13;12;10
77878;PMS7003;67071;51.144;17.050;2023-03-23T20:50:12;9;9;8
77878;PMS7003;67071;51.144;17.050;2023-03-23T20:53:29;7;7;6
77878;PMS7003;67071;51.144;17.050;2023-03-23T20:56:46;7;6;4
77878;PMS7003;67071;51.144;17.050;2023-03-23T21:00:02;14;11;7
77878;PMS7003;67071;51.144;17.050;2023-03-23T21:03:21;8;8;5
77878;PMS7003;67071;51.144;17.050;2023-03-23T21:06:44;14;11;8
77878;PMS7003;67071;51.144;17.050;2023-03-23T21:10:02;8;7;6
77878;PMS7003;67071;51.144;17.050;2023-03-23T21:13:17;6;6;5
77878;PMS7003;67071;51.144;17.050;2023-03-23T21:16:39;14;9;5
77878;PMS7003;67071;51.144;17.050;2023-03-23T21:19:55;9;8;6
77878;PMS7003;67071;51.144;17.050;2023-03-23T21:23:13;8;8;6
77878;PMS7003;67071;51.144;17.050;2023-03-23T21:26:28;20;9;7
77878;PMS7003;67071;51.144;17.050;2023-03-23T21:29:45;17;10;7
77878;PMS7003;67071;51.144;17.050;2023-03-23T21:33:00;10;10;6
77878;PMS7003;67071;51.144;17.050;2023-03-23T21:36:14;12;12;10
77878;PMS7003;67071;51.144;17.050;2023-03-23T21:39:29;10;8;6
77878;PMS7003;67071;51.144;17.050;2023-03-23T21:42:45;16;13;8
77878;PMS7003;67071;51.144;17.050;2023-03-23T21:46:03;9;8;5
77878;PMS7003;67071;51.144;17.050;2023-03-23T21:49:18;13;13;10
77878;PMS7003;67071;51.144;17.050;2023-03-23T21:52:33;17;13;10
77878;PMS7003;67071;51.144;17.050;2023-03-23T21:55:49;9;9;7
77878;PMS7003;67071;51.144;17.050;2023-03-23T21:59:09;19;11;8
77878;PMS7003;67071;51.144;17.050;2023-03-23T22:02:25;12;10;7
77878;PMS7003;67071;51.144;17.050;2023-03-23T22:05:45;13;12;8
77878;PMS7003;67071;51.144;17.050;2023-03-23T22:09:00;4;4;2
77878;PMS7003;67071;51.144;17.050;2023-03-23T22:12:21;15;15;9
77878;PMS7003;67071;51.144;17.050;2023-03-23T22:15:38;14;13;6
77878;PMS7003;67071;51.144;17.050;2023-03-23T22:18:56;11;10;6
77878;PMS7003;67071;51.144;17.050;2023-03-23T22:22:10;29;26;18
77878;PMS7003;67071;51.144;17.050;2023-03-23T22:25:25;15;14;10
77878;PMS7003;67071;51.144;17.050;2023-03-23T22:28:41;31;30;17
77878;PMS7003;67071;51.144;17.050;2023-03-23T22:32:01;17;15;12
77878;PMS7003;67071;51.144;17.050;2023-03-23T22:35:18;20;14;9
77878;PMS7003;67071;51.144;17.050;2023-03-23T22:38:33;11;11;8
77878;PMS7003;67071;51.144;17.050;2023-03-23T22:41:54;13;13;7
77878;PMS7003;67071;51.144;17.050;2023-03-23T22:45:09;22;22;13
77878;PMS7003;67071;51.144;17.050;2023-03-23T22:48:27;45;32;20
77878;PMS7003;67071;51.144;17.050;2023-03-23T22:51:43;32;23;14
77878;PMS7003;67071;51.144;17.050;2023-03-23T22:55:00;20;20;13
77878;PMS7003;67071;51.144;17.050;2023-03-23T22:58:18;25;24;17
77878;PMS7003;67071;51.144;17.050;2023-03-23T23:01:33;22;18;11
77878;PMS7003;67071;51.144;17.050;2023-03-23T23:04:49;13;13;10
77878;PMS7003;67071;51.144;17.050;2023-03-23T23:08:04;16;13;8
77878;PMS7003;67071;51.144;17.050;2023-03-23T23:11:20;12;11;7
77878;PMS7003;67071;51.144;17.050;2023-03-23T23:14:36;15;13;9
77878;PMS7003;67071;51.144;17.050;2023-03-23T23:17:56;16;13;10
77878;PMS7003;67071;51.144;17.050;2023-03-23T23:21:17;15;13;9
77878;PMS7003;67071;51.144;17.050;2023-03-23T23:24:34;14;14;10
77878;PMS7003;67071;51.144;17.050;2023-03-23T23:27:52;11;11;8
77878;PMS7003;67071;51.144;17.050;2023-03-23T23:34:32;9;8;6
77878;PMS7003;67071;51.144;17.050;2023-03-23T23:37:47;10;8;5
77878;PMS7003;67071;51.144;17.050;2023-03-23T23:41:03;9;9;6
77878;PMS7003;67071;51.144;17.050;2023-03-23T23:44:19;6;6;4
77878;PMS7003;67071;51.144;17.050;2023-03-23T23:48:00;7;6;5
77878;PMS7003;67071;51.144;17.050;2023-03-23T23:51:16;11;11;6
77878;PMS7003;67071;51.144;17.050;2023-03-23T23:54:34;5;5;4
77878;PMS7003;67071;51.144;17.050;2023-03-23T23:57:51;7;6;5
